createdAt,value
2022-08-20T00:01:39.388Z,20.44
2022-08-20T00:04:06.889Z,20.44
2022-08-20T00:06:34.702Z,20.42
2022-08-20T00:09:01.907Z,20.40
2022-08-20T00:11:29.196Z,20.40
2022-08-20T00:13:59.739Z,20.36
2022-08-20T00:16:32.986Z,20.34
2022-08-20T00:19:01.531Z,20.34
2022-08-20T00:21:29.379Z,20.32
2022-08-20T00:23:58.519Z,20.28
2022-08-20T00:26:26.399Z,20.23
2022-08-20T00:28:53.694Z,20.21
2022-08-20T00:31:23.748Z,20.20
2022-08-20T00:33:52.742Z,20.18
2022-08-20T00:36:20.457Z,20.18
2022-08-20T00:38:48.089Z,20.19
2022-08-20T00:41:22.486Z,20.19
2022-08-20T00:44:13.915Z,20.15
2022-08-20T00:46:43.848Z,20.13
2022-08-20T00:49:25.224Z,20.11
2022-08-20T00:52:13.297Z,20.11
2022-08-20T00:54:55.792Z,20.08
2022-08-20T00:57:53.309Z,20.04
2022-08-20T01:00:23.246Z,20.00
2022-08-20T01:02:50.971Z,19.97
2022-08-20T01:05:19.134Z,19.95
2022-08-20T01:07:46.468Z,19.94
2022-08-20T01:10:20.405Z,19.94
2022-08-20T01:12:59.026Z,19.86
2022-08-20T01:15:31.057Z,19.83
2022-08-20T01:18:00.898Z,19.83
2022-08-20T01:20:34.478Z,19.77
2022-08-20T01:23:26.082Z,19.75
2022-08-20T01:26:05.519Z,19.77
2022-08-20T01:28:38.390Z,19.80
2022-08-20T01:31:07.849Z,19.79
2022-08-20T01:33:44.218Z,19.73
2022-08-20T01:36:15.146Z,19.65
2022-08-20T01:38:53.895Z,19.62
2022-08-20T01:41:29.431Z,19.67
2022-08-20T01:43:58.306Z,19.69
2022-08-20T01:46:34.958Z,19.67
2022-08-20T01:49:23.123Z,19.65
2022-08-20T01:51:53.795Z,19.62
2022-08-20T01:54:22.229Z,19.59
2022-08-20T01:57:06.474Z,19.57
2022-08-20T01:59:33.765Z,19.55
2022-08-20T02:02:02.954Z,19.51
2022-08-20T02:04:30.792Z,19.47
2022-08-20T02:07:02.254Z,19.45
2022-08-20T02:09:32.449Z,19.40
2022-08-20T02:12:00.762Z,19.37
2022-08-20T02:14:28.595Z,19.35
2022-08-20T02:16:58.869Z,19.34
2022-08-20T02:19:36.090Z,19.32
2022-08-20T02:22:22.183Z,19.27
2022-08-20T02:24:49.661Z,19.26
2022-08-20T02:27:16.848Z,19.25
2022-08-20T02:29:44.026Z,19.22
2022-08-20T02:32:32.366Z,19.21
2022-08-20T02:34:58.702Z,19.20
2022-08-20T02:37:25.820Z,19.18
2022-08-20T02:39:52.796Z,19.15
2022-08-20T02:42:19.958Z,19.15
2022-08-20T02:44:47.125Z,19.15
2022-08-20T02:47:14.234Z,19.12
2022-08-20T02:49:41.251Z,19.10
2022-08-20T02:52:08.692Z,19.06
2022-08-20T02:54:36.242Z,19.04
2022-08-20T02:57:04.615Z,19.00
2022-08-20T02:59:31.729Z,18.95
2022-08-20T03:02:00.512Z,18.92
2022-08-20T03:04:31.472Z,18.90
2022-08-20T03:07:00.255Z,18.88
2022-08-20T03:09:27.603Z,18.85
2022-08-20T03:11:54.814Z,18.84
2022-08-20T03:14:21.848Z,18.82
2022-08-20T03:16:49.094Z,18.79
2022-08-20T03:19:16.417Z,18.79
2022-08-20T03:21:43.793Z,18.76
2022-08-20T03:24:11.350Z,18.74
2022-08-20T03:26:39.040Z,18.74
2022-08-20T03:29:06.152Z,18.72
2022-08-20T03:31:33.353Z,18.71
2022-08-20T03:34:00.594Z,18.66
2022-08-20T03:36:29.209Z,18.62
2022-08-20T03:38:59.438Z,18.65
2022-08-20T03:41:27.135Z,18.67
2022-08-20T03:43:54.974Z,18.68
2022-08-20T03:46:23.481Z,18.67
2022-08-20T03:48:59.821Z,18.63
2022-08-20T03:51:31.770Z,18.61
2022-08-20T03:54:12.820Z,18.60
2022-08-20T03:56:39.698Z,18.59
2022-08-20T03:59:06.591Z,18.59
2022-08-20T04:01:44.655Z,18.55
2022-08-20T04:04:13.581Z,18.53
2022-08-20T04:06:42.497Z,18.49
2022-08-20T04:09:12.347Z,18.50
2022-08-20T04:11:40.627Z,18.50
2022-08-20T04:14:08.019Z,18.45
2022-08-20T04:16:37.892Z,18.42
2022-08-20T04:19:05.485Z,18.39
2022-08-20T04:21:34.402Z,18.37
2022-08-20T04:24:04.424Z,18.37
2022-08-20T04:26:32.126Z,18.38
2022-08-20T04:28:59.337Z,18.36
2022-08-20T04:31:33.671Z,18.32
2022-08-20T04:34:08.183Z,18.28
2022-08-20T04:36:35.993Z,18.28
2022-08-20T04:39:03.258Z,18.29
2022-08-20T04:41:31.756Z,18.27
2022-08-20T04:43:58.744Z,18.24
2022-08-20T04:46:29.074Z,18.18
2022-08-20T04:48:57.360Z,18.15
2022-08-20T04:51:25.452Z,18.14
2022-08-20T04:53:56.586Z,18.13
2022-08-20T04:56:26.248Z,18.15
2022-08-20T04:58:57.351Z,18.11
2022-08-20T05:01:25.207Z,18.06
2022-08-20T05:03:55.119Z,18.05
2022-08-20T05:06:26.458Z,18.06
2022-08-20T05:08:54.781Z,18.10
2022-08-20T05:11:34.538Z,18.14
2022-08-20T05:14:05.462Z,18.11
2022-08-20T05:16:38.058Z,18.10
2022-08-20T05:19:07.057Z,18.11
2022-08-20T05:21:34.229Z,18.10
2022-08-20T05:24:01.319Z,18.05
2022-08-20T05:26:28.301Z,18.05
2022-08-20T05:28:58.426Z,18.06
2022-08-20T05:31:32.158Z,18.06
2022-08-20T05:34:12.519Z,18.09
2022-08-20T05:36:50.488Z,18.13
2022-08-20T05:39:22.633Z,18.11
2022-08-20T05:41:51.440Z,18.10
2022-08-20T05:44:19.063Z,18.08
2022-08-20T05:46:47.192Z,18.11
2022-08-20T05:49:19.114Z,18.10
2022-08-20T05:51:46.965Z,18.11
2022-08-20T05:54:15.585Z,18.12
2022-08-20T05:56:42.521Z,18.14
2022-08-20T05:59:11.008Z,18.15
2022-08-20T06:01:39.965Z,18.18
2022-08-20T06:04:27.228Z,18.19
2022-08-20T06:07:03.144Z,18.23
2022-08-20T06:09:32.308Z,18.23
2022-08-20T06:12:09.480Z,18.22
2022-08-20T06:14:36.456Z,18.21
2022-08-20T06:17:13.521Z,18.18
2022-08-20T06:19:44.106Z,18.16
2022-08-20T06:22:18.783Z,18.14
2022-08-20T06:24:52.600Z,18.17
2022-08-20T06:27:20.244Z,18.20
2022-08-20T06:29:47.705Z,18.20
2022-08-20T06:32:15.389Z,18.19
2022-08-20T06:34:50.019Z,18.25
2022-08-20T06:37:20.828Z,18.27
2022-08-20T06:39:47.718Z,18.32
2022-08-20T06:42:14.636Z,18.35
2022-08-20T06:44:51.072Z,18.39
2022-08-20T06:47:20.842Z,18.42
2022-08-20T06:49:48.753Z,18.43
2022-08-20T06:52:18.717Z,18.47
2022-08-20T06:54:46.261Z,18.51
2022-08-20T06:57:13.306Z,18.53
2022-08-20T06:59:40.210Z,18.53
2022-08-20T07:02:10.054Z,18.57
2022-08-20T07:04:37.674Z,18.59
2022-08-20T07:07:04.992Z,18.61
2022-08-20T07:09:31.828Z,18.63
2022-08-20T07:11:58.991Z,18.62
2022-08-20T07:14:26.275Z,18.66
2022-08-20T07:16:53.133Z,18.69
2022-08-20T07:19:20.028Z,18.70
2022-08-20T07:21:48.310Z,18.72
2022-08-20T07:24:15.167Z,18.72
2022-08-20T07:26:42.033Z,18.73
2022-08-20T07:29:08.848Z,18.73
2022-08-20T07:31:54.312Z,18.73
2022-08-20T07:34:21.099Z,18.73
2022-08-20T07:36:49.079Z,18.78
2022-08-20T07:39:15.904Z,18.84
2022-08-20T07:41:43.641Z,18.92
2022-08-20T07:44:21.821Z,18.99
2022-08-20T07:46:59.536Z,19.07
2022-08-20T07:49:26.476Z,19.12
2022-08-20T07:51:53.312Z,19.17
2022-08-20T07:54:20.130Z,19.24
2022-08-20T07:56:47.201Z,19.32
2022-08-20T07:59:16.549Z,19.37
2022-08-20T08:01:43.398Z,19.43
2022-08-20T08:04:10.224Z,19.49
2022-08-20T08:06:37.175Z,19.54
2022-08-20T08:09:11.876Z,19.58
2022-08-20T08:11:47.036Z,19.63
2022-08-20T08:14:15.642Z,19.68
2022-08-20T08:16:45.772Z,19.74
2022-08-20T08:19:16.124Z,19.78
2022-08-20T08:21:44.429Z,19.83
2022-08-20T08:24:15.444Z,19.89
2022-08-20T08:26:46.326Z,19.96
2022-08-20T08:29:13.659Z,20.01
2022-08-20T08:31:41.450Z,20.07
2022-08-20T08:34:08.748Z,20.11
2022-08-20T08:36:35.640Z,20.16
2022-08-20T08:39:02.527Z,20.22
2022-08-20T08:41:40.626Z,20.26
2022-08-20T08:44:12.846Z,20.28
2022-08-20T08:46:43.790Z,20.30
2022-08-20T08:49:14.689Z,20.36
2022-08-20T08:51:45.257Z,20.41
2022-08-20T08:54:17.614Z,20.46
2022-08-20T08:56:49.773Z,20.55
2022-08-20T08:59:19.187Z,20.57
2022-08-20T09:02:08.199Z,20.65
2022-08-20T09:04:40.243Z,20.73
2022-08-20T09:07:12.055Z,20.82
2022-08-20T09:09:42.905Z,20.87
2022-08-20T09:12:14.862Z,20.92
2022-08-20T09:14:41.921Z,20.95
2022-08-20T09:17:08.905Z,20.99
2022-08-20T09:19:36.124Z,21.02
2022-08-20T09:22:15.558Z,21.08
2022-08-20T09:24:43.266Z,21.11
2022-08-20T09:27:11.003Z,21.13
2022-08-20T09:29:37.940Z,21.16
2022-08-20T09:32:18.007Z,21.17
2022-08-20T09:34:47.994Z,21.16
2022-08-20T09:37:15.552Z,21.18
2022-08-20T09:39:43.344Z,21.20
2022-08-20T09:42:18.697Z,21.18
2022-08-20T09:44:46.416Z,21.18
2022-08-20T09:47:13.873Z,21.13
2022-08-20T09:49:41.193Z,21.14
2022-08-20T09:52:21.592Z,21.20
2022-08-20T09:54:49.502Z,21.27
2022-08-20T09:57:18.315Z,21.32
2022-08-20T09:59:57.706Z,21.38
2022-08-20T10:02:25.145Z,21.39
2022-08-20T10:04:52.363Z,21.40
2022-08-20T10:07:19.394Z,21.45
2022-08-20T10:09:46.290Z,21.48
2022-08-20T10:12:13.810Z,21.53
2022-08-20T10:14:40.954Z,21.64
2022-08-20T10:17:07.924Z,21.72
2022-08-20T10:19:34.902Z,21.76
2022-08-20T10:22:13.277Z,21.81
2022-08-20T10:24:40.179Z,21.87
2022-08-20T10:27:07.456Z,21.98
2022-08-20T10:29:34.460Z,22.09
2022-08-20T10:32:16.322Z,22.18
2022-08-20T10:34:45.073Z,22.22
2022-08-20T10:37:21.741Z,22.21
2022-08-20T10:39:48.654Z,22.22
2022-08-20T10:42:15.883Z,22.19
2022-08-20T10:44:42.823Z,22.22
2022-08-20T10:47:20.626Z,22.25
2022-08-20T10:49:49.292Z,22.25
2022-08-20T10:52:16.222Z,22.25
2022-08-20T10:54:43.138Z,22.29
2022-08-20T10:57:17.714Z,22.34
2022-08-20T10:59:47.272Z,22.37
2022-08-20T11:02:16.471Z,22.38
2022-08-20T11:04:43.993Z,22.39
2022-08-20T11:07:49.864Z,22.40
2022-08-20T11:10:15.492Z,22.41
2022-08-20T11:12:45.514Z,22.39
2022-08-20T11:15:14.187Z,22.38
2022-08-20T11:17:42.921Z,22.40
2022-08-20T11:20:12.285Z,22.45
2022-08-20T11:22:39.152Z,22.49
2022-08-20T11:25:07.472Z,22.57
2022-08-20T11:27:38.900Z,22.64
2022-08-20T11:30:08.877Z,22.64
2022-08-20T11:32:36.336Z,22.69
2022-08-20T11:35:14.048Z,22.75
2022-08-20T11:37:52.128Z,22.80
2022-08-20T11:40:19.395Z,22.80
2022-08-20T11:43:12.591Z,22.75
2022-08-20T11:45:37.481Z,22.74
2022-08-20T11:48:05.511Z,22.74
2022-08-20T11:50:35.384Z,22.72
2022-08-20T11:53:02.242Z,22.68
2022-08-20T11:55:30.727Z,22.66
2022-08-20T11:58:00.138Z,22.65
2022-08-20T12:00:32.768Z,22.65
2022-08-20T12:03:01.976Z,22.68
2022-08-20T12:05:30.278Z,22.68
2022-08-20T12:08:00.203Z,22.69
2022-08-20T12:10:28.329Z,22.68
2022-08-20T12:12:56.776Z,22.72
2022-08-20T12:15:25.494Z,22.73
2022-08-20T12:17:52.855Z,22.74
2022-08-20T12:20:20.326Z,22.76
2022-08-20T12:22:47.167Z,22.81
2022-08-20T12:25:14.470Z,22.82
2022-08-20T12:27:42.180Z,22.84
2022-08-20T12:30:13.057Z,22.84
2022-08-20T12:32:40.390Z,22.89
2022-08-20T12:35:08.863Z,22.92
2022-08-20T12:37:36.963Z,22.95
2022-08-20T12:40:07.009Z,22.93
2022-08-20T12:42:34.193Z,22.90
2022-08-20T12:45:01.504Z,22.91
2022-08-20T12:47:34.653Z,22.93
2022-08-20T12:50:14.294Z,22.97
2022-08-20T12:52:42.159Z,23.03
2022-08-20T12:55:10.674Z,23.07
2022-08-20T12:57:50.005Z,23.07
2022-08-20T13:00:34.665Z,23.05
2022-08-20T13:03:03.489Z,23.05
2022-08-20T13:05:31.791Z,23.06
2022-08-20T13:07:59.645Z,23.06
2022-08-20T13:10:32.635Z,23.10
2022-08-20T13:13:02.835Z,23.13
2022-08-20T13:15:31.774Z,23.14
2022-08-20T13:18:02.477Z,23.18
2022-08-20T13:20:31.021Z,23.21
2022-08-20T13:23:02.141Z,23.24
2022-08-20T13:25:29.055Z,23.27
2022-08-20T13:28:02.431Z,23.27
2022-08-20T13:30:29.245Z,23.30
2022-08-20T13:32:57.015Z,23.32
2022-08-20T13:35:24.387Z,23.34
2022-08-20T13:37:51.327Z,23.39
2022-08-20T13:40:18.929Z,23.42
2022-08-20T13:42:46.008Z,23.45
2022-08-20T13:45:13.412Z,23.48
2022-08-20T13:47:42.023Z,23.48
2022-08-20T13:50:18.657Z,23.51
2022-08-20T13:52:49.043Z,23.55
2022-08-20T13:55:19.032Z,23.59
2022-08-20T13:57:47.437Z,23.65
2022-08-20T14:00:21.735Z,23.71
2022-08-20T14:02:59.294Z,23.77
2022-08-20T14:05:26.356Z,23.83
2022-08-20T14:07:53.210Z,23.90
2022-08-20T14:10:24.569Z,23.93
2022-08-20T14:12:51.518Z,23.97
2022-08-20T14:15:19.376Z,24.01
2022-08-20T14:17:52.979Z,24.05
2022-08-20T14:20:22.950Z,24.09
2022-08-20T14:22:50.286Z,24.09
2022-08-20T14:25:18.732Z,24.10
2022-08-20T14:27:45.959Z,24.12
2022-08-20T14:30:19.531Z,24.16
2022-08-20T14:32:47.028Z,24.19
2022-08-20T14:35:17.954Z,24.19
2022-08-20T14:37:49.679Z,24.13
2022-08-20T14:40:18.229Z,24.11
2022-08-20T14:42:47.710Z,24.15
2022-08-20T14:45:19.935Z,24.17
2022-08-20T14:47:53.618Z,24.20
2022-08-20T14:50:25.381Z,24.20
2022-08-20T14:52:53.613Z,24.22
2022-08-20T14:55:24.478Z,24.21
2022-08-20T14:57:51.785Z,24.20
2022-08-20T15:00:23.225Z,24.17
2022-08-20T15:02:50.266Z,24.15
2022-08-20T15:05:17.675Z,24.15
2022-08-20T15:07:47.955Z,24.18
2022-08-20T15:10:32.523Z,24.24
2022-08-20T15:13:00.447Z,24.28
2022-08-20T15:15:27.500Z,24.34
2022-08-20T15:17:57.100Z,24.40
2022-08-20T15:20:28.727Z,24.43
2022-08-20T15:22:55.769Z,24.48
2022-08-20T15:25:25.267Z,24.51
2022-08-20T15:27:58.262Z,24.52
2022-08-20T15:30:29.122Z,24.51
2022-08-20T15:32:56.325Z,24.53
2022-08-20T15:35:27.448Z,24.57
2022-08-20T15:37:57.332Z,24.60
2022-08-20T15:40:30.647Z,24.63
2022-08-20T15:42:59.628Z,24.66
2022-08-20T15:45:27.423Z,24.68
2022-08-20T15:48:07.776Z,24.73
2022-08-20T15:51:03.382Z,24.74
2022-08-20T15:53:37.978Z,24.74
2022-08-20T15:56:23.020Z,24.70
2022-08-20T15:59:12.999Z,24.66
2022-08-20T16:01:48.843Z,24.64
2022-08-20T16:04:27.766Z,24.59
2022-08-20T16:07:00.367Z,24.53
2022-08-20T16:09:39.251Z,24.51
2022-08-20T16:12:17.993Z,24.52
2022-08-20T16:14:49.108Z,24.54
2022-08-20T16:17:24.586Z,24.58
2022-08-20T16:19:58.550Z,24.61
2022-08-20T16:22:29.537Z,24.62
2022-08-20T16:24:56.673Z,24.61
2022-08-20T16:27:55.087Z,24.57
2022-08-20T16:30:32.783Z,24.55
2022-08-20T16:33:16.481Z,24.57
2022-08-20T16:35:59.158Z,24.53
2022-08-20T16:38:51.945Z,24.53
2022-08-20T16:41:23.607Z,24.47
2022-08-20T16:44:04.250Z,24.42
2022-08-20T16:46:38.076Z,24.39
2022-08-20T16:49:13.946Z,24.34
2022-08-20T16:51:51.998Z,24.35
2022-08-20T16:54:29.317Z,24.34
2022-08-20T16:57:02.008Z,24.32
2022-08-20T16:59:29.233Z,24.31
2022-08-20T17:02:17.361Z,24.28
2022-08-20T17:04:59.544Z,24.24
2022-08-20T17:07:51.373Z,24.23
2022-08-20T17:10:20.633Z,24.23
2022-08-20T17:13:02.951Z,24.25
2022-08-20T17:15:35.659Z,24.28
2022-08-20T17:18:39.354Z,24.30
2022-08-20T17:21:11.762Z,24.32
2022-08-20T17:23:55.576Z,24.28
2022-08-20T17:26:31.798Z,24.25
2022-08-20T17:29:02.888Z,24.22
2022-08-20T17:31:38.784Z,24.21
2022-08-20T17:34:12.846Z,24.19
2022-08-20T17:36:53.442Z,24.17
2022-08-20T17:39:23.226Z,24.15
2022-08-20T17:41:54.781Z,24.15
2022-08-20T17:44:26.112Z,24.14
2022-08-20T17:46:54.513Z,24.10
2022-08-20T17:49:33.771Z,24.10
2022-08-20T17:52:13.032Z,24.06
2022-08-20T17:54:45.745Z,24.02
2022-08-20T17:57:28.372Z,24.00
2022-08-20T18:00:02.468Z,23.94
2022-08-20T18:02:31.175Z,23.90
2022-08-20T18:04:58.222Z,23.87
2022-08-20T18:07:31.448Z,23.85
2022-08-20T18:10:23.835Z,23.82
2022-08-20T18:13:20.006Z,23.80
2022-08-20T18:15:56.260Z,23.74
2022-08-20T18:18:36.207Z,23.68
2022-08-20T18:21:37.049Z,23.60
2022-08-20T18:24:30.041Z,23.54
2022-08-20T18:27:01.312Z,23.52
2022-08-20T18:29:35.216Z,23.49
2022-08-20T18:32:37.261Z,23.47
2022-08-20T18:35:13.845Z,23.46
2022-08-20T18:37:41.066Z,23.44
2022-08-20T18:40:16.880Z,23.40
2022-08-20T18:42:44.403Z,23.39
2022-08-20T18:45:11.355Z,23.40
2022-08-20T18:47:45.375Z,23.39
2022-08-20T18:50:45.947Z,23.37
2022-08-20T18:53:19.912Z,23.33
2022-08-20T18:56:05.046Z,23.31
2022-08-20T18:58:55.243Z,23.30
2022-08-20T19:01:22.557Z,23.26
2022-08-20T19:03:53.383Z,23.24
2022-08-20T19:06:51.658Z,23.19
2022-08-20T19:09:44.810Z,23.16
2022-08-20T19:12:28.500Z,23.14
2022-08-20T19:15:00.827Z,23.10
2022-08-20T19:17:50.248Z,23.04
2022-08-20T19:20:21.717Z,23.00
2022-08-20T19:22:52.426Z,22.98
2022-08-20T19:25:30.549Z,22.93
2022-08-20T19:28:06.731Z,22.87
2022-08-20T19:30:40.581Z,22.83
2022-08-20T19:33:08.634Z,22.80
2022-08-20T19:35:36.389Z,22.78
2022-08-20T19:38:06.095Z,22.74
2022-08-20T19:40:39.204Z,22.73
2022-08-20T19:43:15.264Z,22.70
2022-08-20T19:45:49.263Z,22.65
2022-08-20T19:48:28.022Z,22.62
2022-08-20T19:51:14.884Z,22.61
2022-08-20T19:53:48.908Z,22.61
2022-08-20T19:56:24.862Z,22.59
2022-08-20T19:59:21.264Z,22.59
2022-08-20T20:01:54.202Z,22.58
2022-08-20T20:04:21.253Z,22.57
2022-08-20T20:06:48.869Z,22.53
2022-08-20T20:09:25.046Z,22.49
2022-08-20T20:11:58.599Z,22.46
2022-08-20T20:14:32.119Z,22.44
2022-08-20T20:17:00.004Z,22.42
2022-08-20T20:19:28.117Z,22.42
2022-08-20T20:22:19.863Z,22.39
2022-08-20T20:25:04.189Z,22.34
2022-08-20T20:27:32.377Z,22.29
2022-08-20T20:30:08.609Z,22.27
2022-08-20T20:32:41.690Z,22.22
2022-08-20T20:35:08.542Z,22.21
2022-08-20T20:37:50.145Z,22.17
2022-08-20T20:40:28.110Z,22.13
2022-08-20T20:43:07.849Z,22.10
2022-08-20T20:45:45.905Z,22.05
2022-08-20T20:48:23.672Z,22.00
2022-08-20T20:50:56.409Z,21.97
2022-08-20T20:53:53.101Z,21.94
2022-08-20T20:56:33.622Z,21.90
2022-08-20T20:59:06.238Z,21.83
2022-08-20T21:01:48.452Z,21.78
2022-08-20T21:04:17.237Z,21.76
2022-08-20T21:06:44.457Z,21.76
2022-08-20T21:09:11.374Z,21.75
2022-08-20T21:11:38.187Z,21.72
2022-08-20T21:14:05.120Z,21.70
2022-08-20T21:16:31.972Z,21.68
2022-08-20T21:18:58.832Z,21.68
2022-08-20T21:21:25.823Z,21.66
2022-08-20T21:23:52.703Z,21.65
2022-08-20T21:26:19.657Z,21.62
2022-08-20T21:28:46.566Z,21.61
2022-08-20T21:31:13.583Z,21.58
2022-08-20T21:33:40.478Z,21.55
2022-08-20T21:36:07.675Z,21.47
2022-08-20T21:38:34.444Z,21.43
2022-08-20T21:41:01.497Z,21.41
2022-08-20T21:43:32.809Z,21.40
2022-08-20T21:46:02.351Z,21.38
2022-08-20T21:48:30.190Z,21.37
2022-08-20T21:50:56.957Z,21.35
2022-08-20T21:53:23.794Z,21.33
2022-08-20T21:55:50.949Z,21.33
2022-08-20T21:58:19.261Z,21.33
2022-08-20T22:00:58.992Z,21.32
2022-08-20T22:03:38.501Z,21.30
2022-08-20T22:06:07.450Z,21.28
2022-08-20T22:08:34.553Z,21.25
2022-08-20T22:11:02.282Z,21.23
2022-08-20T22:13:32.876Z,21.18
2022-08-20T22:16:09.180Z,21.15
2022-08-20T22:18:36.813Z,21.16
2022-08-20T22:21:07.644Z,21.14
2022-08-20T22:23:35.827Z,21.11
2022-08-20T22:26:02.733Z,21.08
2022-08-20T22:28:29.508Z,21.06
2022-08-20T22:30:56.437Z,21.04
2022-08-20T22:33:23.843Z,21.00
2022-08-20T22:35:53.979Z,20.97
2022-08-20T22:38:21.680Z,20.96
2022-08-20T22:40:48.726Z,20.91
2022-08-20T22:43:16.304Z,20.88
2022-08-20T22:45:46.058Z,20.84
2022-08-20T22:48:17.035Z,20.82
2022-08-20T22:50:45.170Z,20.81
2022-08-20T22:53:13.909Z,20.81
2022-08-20T22:55:40.787Z,20.78
2022-08-20T22:58:08.902Z,20.71
2022-08-20T23:00:38.052Z,20.68
2022-08-20T23:03:05.857Z,20.67
2022-08-20T23:05:36.251Z,20.66
2022-08-20T23:08:04.741Z,20.62
2022-08-20T23:10:33.559Z,20.54
2022-08-20T23:13:01.637Z,20.49
2022-08-20T23:15:30.152Z,20.47
2022-08-20T23:18:01.553Z,20.48
2022-08-20T23:20:28.931Z,20.52
2022-08-20T23:22:56.035Z,20.49
2022-08-20T23:25:23.171Z,20.49
2022-08-20T23:27:53.902Z,20.48
2022-08-20T23:30:21.728Z,20.49
2022-08-20T23:32:49.281Z,20.51
2022-08-20T23:35:17.046Z,20.50
2022-08-20T23:37:47.359Z,20.48
2022-08-20T23:40:16.057Z,20.46
2022-08-20T23:42:43.369Z,20.42
2022-08-20T23:45:10.830Z,20.38
2022-08-20T23:47:38.439Z,20.35
2022-08-20T23:50:06.883Z,20.34
2022-08-20T23:52:33.815Z,20.31
2022-08-20T23:55:00.673Z,20.31
2022-08-20T23:57:27.606Z,20.27
2022-08-20T23:59:54.770Z,20.25
